sensor_id;sensor_type;location;lat;lon;timestamp;P1;durP1;ratioP1;P2;durP2;ratioP2
830;SDS011;397;50.564;7.272;2022-11-20T00:01:04;18.47;;;14.67;;
830;SDS011;397;50.564;7.272;2022-11-20T00:03:33;21.17;;;16.73;;
830;SDS011;397;50.564;7.272;2022-11-20T00:06:01;18.47;;;14.73;;
830;SDS011;397;50.564;7.272;2022-11-20T00:08:30;23.90;;;15.60;;
830;SDS011;397;50.564;7.272;2022-11-20T00:11:02;20.17;;;14.77;;
830;SDS011;397;50.564;7.272;2022-11-20T00:13:31;19.80;;;14.87;;
830;SDS011;397;50.564;7.272;2022-11-20T00:16:00;20.60;;;15.97;;
830;SDS011;397;50.564;7.272;2022-11-20T00:18:28;18.27;;;15.53;;
830;SDS011;397;50.564;7.272;2022-11-20T00:21:07;22.53;;;17.47;;
830;SDS011;397;50.564;7.272;2022-11-20T00:23:35;19.83;;;15.63;;
830;SDS011;397;50.564;7.272;2022-11-20T00:26:04;17.00;;;13.97;;
830;SDS011;397;50.564;7.272;2022-11-20T00:28:33;18.60;;;14.90;;
830;SDS011;397;50.564;7.272;2022-11-20T00:31:07;19.87;;;15.90;;
830;SDS011;397;50.564;7.272;2022-11-20T00:33:31;23.80;;;16.87;;
830;SDS011;397;50.564;7.272;2022-11-20T00:36:02;17.10;;;14.67;;
830;SDS011;397;50.564;7.272;2022-11-20T00:38:31;17.97;;;15.10;;
830;SDS011;397;50.564;7.272;2022-11-20T00:41:04;18.93;;;14.67;;
830;SDS011;397;50.564;7.272;2022-11-20T00:43:32;19.37;;;16.17;;
830;SDS011;397;50.564;7.272;2022-11-20T00:46:01;19.30;;;16.07;;
830;SDS011;397;50.564;7.272;2022-11-20T00:48:31;21.63;;;17.33;;
830;SDS011;397;50.564;7.272;2022-11-20T00:50:59;20.17;;;15.30;;
830;SDS011;397;50.564;7.272;2022-11-20T00:53:27;19.80;;;14.90;;
830;SDS011;397;50.564;7.272;2022-11-20T00:55:56;20.07;;;16.10;;
830;SDS011;397;50.564;7.272;2022-11-20T00:58:35;19.90;;;15.73;;
830;SDS011;397;50.564;7.272;2022-11-20T01:01:05;20.23;;;16.50;;
830;SDS011;397;50.564;7.272;2022-11-20T01:03:34;21.00;;;16.57;;
830;SDS011;397;50.564;7.272;2022-11-20T01:06:05;18.67;;;15.03;;
830;SDS011;397;50.564;7.272;2022-11-20T01:08:35;24.27;;;16.83;;
830;SDS011;397;50.564;7.272;2022-11-20T01:11:04;22.37;;;16.60;;
830;SDS011;397;50.564;7.272;2022-11-20T01:13:34;21.00;;;15.77;;
830;SDS011;397;50.564;7.272;2022-11-20T01:16:06;18.63;;;14.93;;
830;SDS011;397;50.564;7.272;2022-11-20T01:18:39;22.17;;;16.67;;
830;SDS011;397;50.564;7.272;2022-11-20T01:21:09;22.60;;;16.50;;
830;SDS011;397;50.564;7.272;2022-11-20T01:23:39;20.27;;;16.13;;
830;SDS011;397;50.564;7.272;2022-11-20T01:26:09;21.20;;;17.97;;
830;SDS011;397;50.564;7.272;2022-11-20T01:28:41;20.90;;;16.73;;
830;SDS011;397;50.564;7.272;2022-11-20T01:33:43;19.90;;;16.07;;
830;SDS011;397;50.564;7.272;2022-11-20T01:36:13;22.60;;;17.90;;
830;SDS011;397;50.564;7.272;2022-11-20T01:38:41;19.43;;;15.90;;
830;SDS011;397;50.564;7.272;2022-11-20T01:41:10;22.60;;;16.70;;
830;SDS011;397;50.564;7.272;2022-11-20T01:43:40;22.07;;;15.43;;
830;SDS011;397;50.564;7.272;2022-11-20T01:46:14;21.83;;;16.50;;
830;SDS011;397;50.564;7.272;2022-11-20T01:51:29;24.50;;;17.73;;
830;SDS011;397;50.564;7.272;2022-11-20T01:54:03;22.93;;;16.57;;
830;SDS011;397;50.564;7.272;2022-11-20T01:56:33;27.57;;;17.83;;
830;SDS011;397;50.564;7.272;2022-11-20T01:59:03;20.30;;;16.77;;
830;SDS011;397;50.564;7.272;2022-11-20T02:01:33;21.33;;;16.27;;
830;SDS011;397;50.564;7.272;2022-11-20T02:04:01;21.37;;;15.47;;
830;SDS011;397;50.564;7.272;2022-11-20T02:06:30;19.83;;;14.70;;
830;SDS011;397;50.564;7.272;2022-11-20T02:09:03;23.53;;;17.73;;
830;SDS011;397;50.564;7.272;2022-11-20T02:11:30;19.23;;;15.70;;
830;SDS011;397;50.564;7.272;2022-11-20T02:13:58;24.63;;;16.30;;
830;SDS011;397;50.564;7.272;2022-11-20T02:16:35;21.40;;;17.03;;
830;SDS011;397;50.564;7.272;2022-11-20T02:19:00;25.10;;;16.93;;
830;SDS011;397;50.564;7.272;2022-11-20T02:21:35;23.07;;;17.40;;
830;SDS011;397;50.564;7.272;2022-11-20T02:24:07;20.60;;;15.73;;
830;SDS011;397;50.564;7.272;2022-11-20T02:26:43;25.40;;;16.80;;
830;SDS011;397;50.564;7.272;2022-11-20T02:29:07;22.50;;;17.00;;
830;SDS011;397;50.564;7.272;2022-11-20T02:31:40;22.70;;;16.70;;
830;SDS011;397;50.564;7.272;2022-11-20T02:34:05;20.07;;;14.33;;
830;SDS011;397;50.564;7.272;2022-11-20T02:36:33;23.03;;;16.50;;
830;SDS011;397;50.564;7.272;2022-11-20T02:39:03;25.23;;;16.80;;
830;SDS011;397;50.564;7.272;2022-11-20T02:41:36;23.67;;;18.30;;
830;SDS011;397;50.564;7.272;2022-11-20T02:44:05;23.47;;;18.40;;
830;SDS011;397;50.564;7.272;2022-11-20T02:46:32;20.53;;;16.13;;
830;SDS011;397;50.564;7.272;2022-11-20T02:49:01;23.77;;;18.10;;
830;SDS011;397;50.564;7.272;2022-11-20T02:51:29;24.03;;;19.10;;
830;SDS011;397;50.564;7.272;2022-11-20T02:53:58;22.80;;;17.43;;
830;SDS011;397;50.564;7.272;2022-11-20T02:56:25;24.90;;;17.73;;
830;SDS011;397;50.564;7.272;2022-11-20T02:58:53;23.37;;;17.97;;
830;SDS011;397;50.564;7.272;2022-11-20T03:01:21;21.83;;;17.37;;
830;SDS011;397;50.564;7.272;2022-11-20T03:03:49;24.00;;;17.63;;
830;SDS011;397;50.564;7.272;2022-11-20T03:06:18;23.77;;;18.43;;
830;SDS011;397;50.564;7.272;2022-11-20T03:08:45;22.93;;;17.43;;
830;SDS011;397;50.564;7.272;2022-11-20T03:11:13;23.67;;;17.50;;
830;SDS011;397;50.564;7.272;2022-11-20T03:13:40;21.60;;;17.30;;
830;SDS011;397;50.564;7.272;2022-11-20T03:16:13;22.80;;;17.60;;
830;SDS011;397;50.564;7.272;2022-11-20T03:18:41;23.37;;;18.10;;
830;SDS011;397;50.564;7.272;2022-11-20T03:21:10;24.37;;;19.20;;
830;SDS011;397;50.564;7.272;2022-11-20T03:23:38;22.27;;;17.30;;
830;SDS011;397;50.564;7.272;2022-11-20T03:26:07;22.67;;;18.67;;
830;SDS011;397;50.564;7.272;2022-11-20T03:28:41;22.30;;;17.80;;
830;SDS011;397;50.564;7.272;2022-11-20T03:31:11;24.20;;;16.70;;
830;SDS011;397;50.564;7.272;2022-11-20T03:33:41;25.60;;;17.53;;
830;SDS011;397;50.564;7.272;2022-11-20T03:36:10;22.83;;;17.80;;
830;SDS011;397;50.564;7.272;2022-11-20T03:38:39;24.40;;;17.80;;
830;SDS011;397;50.564;7.272;2022-11-20T03:41:08;24.03;;;17.17;;
830;SDS011;397;50.564;7.272;2022-11-20T03:43:38;23.63;;;17.60;;
830;SDS011;397;50.564;7.272;2022-11-20T03:46:06;22.23;;;16.27;;
830;SDS011;397;50.564;7.272;2022-11-20T03:48:34;25.30;;;19.00;;
830;SDS011;397;50.564;7.272;2022-11-20T03:51:08;24.23;;;19.13;;
830;SDS011;397;50.564;7.272;2022-11-20T03:53:47;26.10;;;18.97;;
830;SDS011;397;50.564;7.272;2022-11-20T03:56:16;23.47;;;17.90;;
830;SDS011;397;50.564;7.272;2022-11-20T03:58:46;24.20;;;18.77;;
830;SDS011;397;50.564;7.272;2022-11-20T04:01:14;22.20;;;17.93;;
830;SDS011;397;50.564;7.272;2022-11-20T04:03:44;22.37;;;17.20;;
830;SDS011;397;50.564;7.272;2022-11-20T04:06:18;22.00;;;17.10;;
830;SDS011;397;50.564;7.272;2022-11-20T04:08:42;22.27;;;17.37;;
830;SDS011;397;50.564;7.272;2022-11-20T04:11:13;27.57;;;18.30;;
830;SDS011;397;50.564;7.272;2022-11-20T04:13:48;23.27;;;17.97;;
830;SDS011;397;50.564;7.272;2022-11-20T04:16:17;22.93;;;16.67;;
830;SDS011;397;50.564;7.272;2022-11-20T04:18:45;23.87;;;17.97;;
830;SDS011;397;50.564;7.272;2022-11-20T04:21:12;22.73;;;16.23;;
830;SDS011;397;50.564;7.272;2022-11-20T04:23:40;26.80;;;17.67;;
830;SDS011;397;50.564;7.272;2022-11-20T04:26:08;20.70;;;15.20;;
830;SDS011;397;50.564;7.272;2022-11-20T04:28:38;20.50;;;15.77;;
830;SDS011;397;50.564;7.272;2022-11-20T04:31:15;22.90;;;17.67;;
830;SDS011;397;50.564;7.272;2022-11-20T04:33:39;24.80;;;18.00;;
830;SDS011;397;50.564;7.272;2022-11-20T04:36:11;22.57;;;17.50;;
830;SDS011;397;50.564;7.272;2022-11-20T04:38:40;27.07;;;17.93;;
830;SDS011;397;50.564;7.272;2022-11-20T04:41:11;23.97;;;18.37;;
830;SDS011;397;50.564;7.272;2022-11-20T04:43:54;24.77;;;17.23;;
830;SDS011;397;50.564;7.272;2022-11-20T04:46:19;24.57;;;17.50;;
830;SDS011;397;50.564;7.272;2022-11-20T04:48:47;22.80;;;16.97;;
830;SDS011;397;50.564;7.272;2022-11-20T04:51:15;28.07;;;19.40;;
830;SDS011;397;50.564;7.272;2022-11-20T04:53:42;23.60;;;18.13;;
830;SDS011;397;50.564;7.272;2022-11-20T04:56:11;23.70;;;18.70;;
830;SDS011;397;50.564;7.272;2022-11-20T04:58:39;25.80;;;18.93;;
830;SDS011;397;50.564;7.272;2022-11-20T05:01:11;23.90;;;18.17;;
830;SDS011;397;50.564;7.272;2022-11-20T05:03:41;25.00;;;19.17;;
830;SDS011;397;50.564;7.272;2022-11-20T05:06:10;22.80;;;17.17;;
830;SDS011;397;50.564;7.272;2022-11-20T05:08:39;27.20;;;18.40;;
830;SDS011;397;50.564;7.272;2022-11-20T05:13:58;25.60;;;18.17;;
830;SDS011;397;50.564;7.272;2022-11-20T05:16:26;25.57;;;19.50;;
830;SDS011;397;50.564;7.272;2022-11-20T05:18:53;28.37;;;18.33;;
830;SDS011;397;50.564;7.272;2022-11-20T05:21:21;24.43;;;16.87;;
830;SDS011;397;50.564;7.272;2022-11-20T05:23:49;25.50;;;18.40;;
830;SDS011;397;50.564;7.272;2022-11-20T05:26:17;27.40;;;19.03;;
830;SDS011;397;50.564;7.272;2022-11-20T05:28:50;27.77;;;19.13;;
830;SDS011;397;50.564;7.272;2022-11-20T05:31:19;29.40;;;19.00;;
830;SDS011;397;50.564;7.272;2022-11-20T05:33:48;25.67;;;17.93;;
830;SDS011;397;50.564;7.272;2022-11-20T05:36:16;31.00;;;20.43;;
830;SDS011;397;50.564;7.272;2022-11-20T05:38:44;31.23;;;21.60;;
830;SDS011;397;50.564;7.272;2022-11-20T05:41:12;23.60;;;18.87;;
830;SDS011;397;50.564;7.272;2022-11-20T05:43:42;27.33;;;19.40;;
830;SDS011;397;50.564;7.272;2022-11-20T05:46:12;26.17;;;20.20;;
830;SDS011;397;50.564;7.272;2022-11-20T05:48:41;27.40;;;18.67;;
830;SDS011;397;50.564;7.272;2022-11-20T05:51:10;23.30;;;17.17;;
830;SDS011;397;50.564;7.272;2022-11-20T05:53:39;25.50;;;18.23;;
830;SDS011;397;50.564;7.272;2022-11-20T05:56:09;27.97;;;20.67;;
830;SDS011;397;50.564;7.272;2022-11-20T05:58:40;26.93;;;19.80;;
830;SDS011;397;50.564;7.272;2022-11-20T06:01:10;26.67;;;18.27;;
830;SDS011;397;50.564;7.272;2022-11-20T06:03:41;27.63;;;19.37;;
830;SDS011;397;50.564;7.272;2022-11-20T06:06:11;27.97;;;20.10;;
830;SDS011;397;50.564;7.272;2022-11-20T06:08:40;25.50;;;20.93;;
830;SDS011;397;50.564;7.272;2022-11-20T06:11:09;29.53;;;18.10;;
830;SDS011;397;50.564;7.272;2022-11-20T06:13:38;27.97;;;20.27;;
830;SDS011;397;50.564;7.272;2022-11-20T06:16:06;28.03;;;19.50;;
830;SDS011;397;50.564;7.272;2022-11-20T06:18:34;30.80;;;20.50;;
830;SDS011;397;50.564;7.272;2022-11-20T06:21:02;29.33;;;19.67;;
830;SDS011;397;50.564;7.272;2022-11-20T06:23:38;31.40;;;21.50;;
830;SDS011;397;50.564;7.272;2022-11-20T06:26:07;31.50;;;21.20;;
830;SDS011;397;50.564;7.272;2022-11-20T06:28:36;33.33;;;21.20;;
830;SDS011;397;50.564;7.272;2022-11-20T06:31:05;27.73;;;19.40;;
830;SDS011;397;50.564;7.272;2022-11-20T06:33:33;29.97;;;20.73;;
830;SDS011;397;50.564;7.272;2022-11-20T06:36:01;28.43;;;20.00;;
830;SDS011;397;50.564;7.272;2022-11-20T06:38:29;29.40;;;21.53;;
830;SDS011;397;50.564;7.272;2022-11-20T06:40:57;33.00;;;22.70;;
830;SDS011;397;50.564;7.272;2022-11-20T06:43:24;34.80;;;21.17;;
830;SDS011;397;50.564;7.272;2022-11-20T06:45:52;31.27;;;21.17;;
830;SDS011;397;50.564;7.272;2022-11-20T06:48:20;34.33;;;23.47;;
830;SDS011;397;50.564;7.272;2022-11-20T06:50:49;30.23;;;20.90;;
830;SDS011;397;50.564;7.272;2022-11-20T06:53:16;30.17;;;22.50;;
830;SDS011;397;50.564;7.272;2022-11-20T06:55:44;35.00;;;24.37;;
830;SDS011;397;50.564;7.272;2022-11-20T06:58:13;35.83;;;21.30;;
830;SDS011;397;50.564;7.272;2022-11-20T07:00:42;34.30;;;20.40;;
830;SDS011;397;50.564;7.272;2022-11-20T07:03:10;35.33;;;22.50;;
830;SDS011;397;50.564;7.272;2022-11-20T07:05:39;39.93;;;24.83;;
830;SDS011;397;50.564;7.272;2022-11-20T07:08:06;34.60;;;23.23;;
830;SDS011;397;50.564;7.272;2022-11-20T07:10:34;33.10;;;21.27;;
830;SDS011;397;50.564;7.272;2022-11-20T07:13:02;29.50;;;20.67;;
830;SDS011;397;50.564;7.272;2022-11-20T07:15:29;30.23;;;22.67;;
830;SDS011;397;50.564;7.272;2022-11-20T07:18:00;34.77;;;23.40;;
830;SDS011;397;50.564;7.272;2022-11-20T07:20:27;36.80;;;22.90;;
830;SDS011;397;50.564;7.272;2022-11-20T07:22:55;30.20;;;22.83;;
830;SDS011;397;50.564;7.272;2022-11-20T07:25:24;31.87;;;23.97;;
830;SDS011;397;50.564;7.272;2022-11-20T07:27:56;33.13;;;22.47;;
830;SDS011;397;50.564;7.272;2022-11-20T07:30:25;33.13;;;21.20;;
830;SDS011;397;50.564;7.272;2022-11-20T07:32:54;29.57;;;22.03;;
830;SDS011;397;50.564;7.272;2022-11-20T07:35:22;30.60;;;23.10;;
830;SDS011;397;50.564;7.272;2022-11-20T07:37:51;37.10;;;25.40;;
830;SDS011;397;50.564;7.272;2022-11-20T07:40:18;31.80;;;22.83;;
830;SDS011;397;50.564;7.272;2022-11-20T07:42:49;43.60;;;29.97;;
830;SDS011;397;50.564;7.272;2022-11-20T07:45:19;38.23;;;28.57;;
830;SDS011;397;50.564;7.272;2022-11-20T07:47:49;35.30;;;25.27;;
830;SDS011;397;50.564;7.272;2022-11-20T07:50:17;35.50;;;25.07;;
830;SDS011;397;50.564;7.272;2022-11-20T07:52:45;35.70;;;23.67;;
830;SDS011;397;50.564;7.272;2022-11-20T07:55:13;31.20;;;22.00;;
830;SDS011;397;50.564;7.272;2022-11-20T07:57:41;35.00;;;25.07;;
830;SDS011;397;50.564;7.272;2022-11-20T08:00:09;36.03;;;23.63;;
830;SDS011;397;50.564;7.272;2022-11-20T08:02:38;30.60;;;22.63;;
830;SDS011;397;50.564;7.272;2022-11-20T08:05:07;32.20;;;22.63;;
830;SDS011;397;50.564;7.272;2022-11-20T08:07:38;33.30;;;23.63;;
830;SDS011;397;50.564;7.272;2022-11-20T08:10:08;31.97;;;23.17;;
830;SDS011;397;50.564;7.272;2022-11-20T08:12:43;31.20;;;23.57;;
830;SDS011;397;50.564;7.272;2022-11-20T08:15:31;35.50;;;23.20;;
830;SDS011;397;50.564;7.272;2022-11-20T08:18:06;34.40;;;23.03;;
830;SDS011;397;50.564;7.272;2022-11-20T08:20:37;42.10;;;25.00;;
830;SDS011;397;50.564;7.272;2022-11-20T08:23:05;35.30;;;23.50;;
830;SDS011;397;50.564;7.272;2022-11-20T08:25:34;32.60;;;23.57;;
830;SDS011;397;50.564;7.272;2022-11-20T08:28:04;40.23;;;26.07;;
830;SDS011;397;50.564;7.272;2022-11-20T08:30:33;33.60;;;22.40;;
830;SDS011;397;50.564;7.272;2022-11-20T08:33:05;34.77;;;24.50;;
830;SDS011;397;50.564;7.272;2022-11-20T08:35:34;34.87;;;21.63;;
830;SDS011;397;50.564;7.272;2022-11-20T08:38:03;34.07;;;22.57;;
830;SDS011;397;50.564;7.272;2022-11-20T08:40:32;31.10;;;22.33;;
830;SDS011;397;50.564;7.272;2022-11-20T08:43:00;29.97;;;22.10;;
830;SDS011;397;50.564;7.272;2022-11-20T08:45:27;35.83;;;22.63;;
830;SDS011;397;50.564;7.272;2022-11-20T08:47:59;36.70;;;24.03;;
830;SDS011;397;50.564;7.272;2022-11-20T08:50:27;32.57;;;23.63;;
830;SDS011;397;50.564;7.272;2022-11-20T08:53:01;28.67;;;21.03;;
830;SDS011;397;50.564;7.272;2022-11-20T08:55:32;31.90;;;22.50;;
830;SDS011;397;50.564;7.272;2022-11-20T08:58:04;30.10;;;21.00;;
830;SDS011;397;50.564;7.272;2022-11-20T09:00:33;32.90;;;22.60;;
830;SDS011;397;50.564;7.272;2022-11-20T09:03:01;33.90;;;22.27;;
830;SDS011;397;50.564;7.272;2022-11-20T09:05:28;28.13;;;20.97;;
830;SDS011;397;50.564;7.272;2022-11-20T09:07:56;37.40;;;25.87;;
830;SDS011;397;50.564;7.272;2022-11-20T09:10:25;37.23;;;23.67;;
830;SDS011;397;50.564;7.272;2022-11-20T09:12:53;34.37;;;20.80;;
830;SDS011;397;50.564;7.272;2022-11-20T09:15:21;30.00;;;24.10;;
830;SDS011;397;50.564;7.272;2022-11-20T09:17:53;29.00;;;20.83;;
830;SDS011;397;50.564;7.272;2022-11-20T09:20:23;29.70;;;20.77;;
830;SDS011;397;50.564;7.272;2022-11-20T09:22:52;29.67;;;21.90;;
830;SDS011;397;50.564;7.272;2022-11-20T09:25:19;30.47;;;19.50;;
830;SDS011;397;50.564;7.272;2022-11-20T09:27:47;29.20;;;21.03;;
830;SDS011;397;50.564;7.272;2022-11-20T09:30:16;23.03;;;18.07;;
830;SDS011;397;50.564;7.272;2022-11-20T09:32:44;26.87;;;20.10;;
830;SDS011;397;50.564;7.272;2022-11-20T09:35:11;26.43;;;19.23;;
830;SDS011;397;50.564;7.272;2022-11-20T09:37:40;27.10;;;22.00;;
830;SDS011;397;50.564;7.272;2022-11-20T09:40:12;26.77;;;20.17;;
830;SDS011;397;50.564;7.272;2022-11-20T09:42:45;25.93;;;19.90;;
830;SDS011;397;50.564;7.272;2022-11-20T09:48:18;25.97;;;20.77;;
830;SDS011;397;50.564;7.272;2022-11-20T09:56:46;26.23;;;20.10;;
830;SDS011;397;50.564;7.272;2022-11-20T09:59:23;26.57;;;19.03;;
830;SDS011;397;50.564;7.272;2022-11-20T10:01:48;30.37;;;21.30;;
830;SDS011;397;50.564;7.272;2022-11-20T10:04:17;27.90;;;22.17;;
830;SDS011;397;50.564;7.272;2022-11-20T10:06:48;29.50;;;23.00;;
830;SDS011;397;50.564;7.272;2022-11-20T10:09:35;31.13;;;21.73;;
830;SDS011;397;50.564;7.272;2022-11-20T10:12:25;28.50;;;22.00;;
830;SDS011;397;50.564;7.272;2022-11-20T10:14:59;25.60;;;20.17;;
830;SDS011;397;50.564;7.272;2022-11-20T10:20:37;28.03;;;20.80;;
830;SDS011;397;50.564;7.272;2022-11-20T10:23:16;25.23;;;18.80;;
830;SDS011;397;50.564;7.272;2022-11-20T10:27:01;26.90;;;18.97;;
830;SDS011;397;50.564;7.272;2022-11-20T10:31:46;23.77;;;17.27;;
830;SDS011;397;50.564;7.272;2022-11-20T10:34:17;24.97;;;17.57;;
830;SDS011;397;50.564;7.272;2022-11-20T10:36:52;21.97;;;16.10;;
830;SDS011;397;50.564;7.272;2022-11-20T10:39:39;27.67;;;18.67;;
830;SDS011;397;50.564;7.272;2022-11-20T10:42:17;28.43;;;19.17;;
830;SDS011;397;50.564;7.272;2022-11-20T10:44:47;22.83;;;16.97;;
830;SDS011;397;50.564;7.272;2022-11-20T10:47:30;21.27;;;16.97;;
830;SDS011;397;50.564;7.272;2022-11-20T10:50:01;23.53;;;16.33;;
830;SDS011;397;50.564;7.272;2022-11-20T10:52:42;20.43;;;16.20;;
830;SDS011;397;50.564;7.272;2022-11-20T11:00:21;23.60;;;17.70;;
830;SDS011;397;50.564;7.272;2022-11-20T11:02:49;21.83;;;17.37;;
830;SDS011;397;50.564;7.272;2022-11-20T11:05:23;21.50;;;17.47;;
830;SDS011;397;50.564;7.272;2022-11-20T11:07:58;25.83;;;19.53;;
830;SDS011;397;50.564;7.272;2022-11-20T11:10:32;24.00;;;19.00;;
830;SDS011;397;50.564;7.272;2022-11-20T11:13:02;21.67;;;16.90;;
830;SDS011;397;50.564;7.272;2022-11-20T11:15:35;21.07;;;16.73;;
830;SDS011;397;50.564;7.272;2022-11-20T11:18:07;25.97;;;19.27;;
830;SDS011;397;50.564;7.272;2022-11-20T11:20:37;19.83;;;15.70;;
830;SDS011;397;50.564;7.272;2022-11-20T11:23:10;19.70;;;15.33;;
830;SDS011;397;50.564;7.272;2022-11-20T11:25:36;23.73;;;16.43;;
830;SDS011;397;50.564;7.272;2022-11-20T11:30:50;23.23;;;17.13;;
830;SDS011;397;50.564;7.272;2022-11-20T11:33:19;19.97;;;16.90;;
830;SDS011;397;50.564;7.272;2022-11-20T11:35:53;26.33;;;19.03;;
830;SDS011;397;50.564;7.272;2022-11-20T11:38:34;27.30;;;20.17;;
830;SDS011;397;50.564;7.272;2022-11-20T11:41:09;22.57;;;18.40;;
830;SDS011;397;50.564;7.272;2022-11-20T11:43:52;18.70;;;15.40;;
830;SDS011;397;50.564;7.272;2022-11-20T11:46:52;22.40;;;15.73;;
830;SDS011;397;50.564;7.272;2022-11-20T11:49:23;19.50;;;15.50;;
830;SDS011;397;50.564;7.272;2022-11-20T11:51:59;21.93;;;16.27;;
830;SDS011;397;50.564;7.272;2022-11-20T11:57:15;20.03;;;15.50;;
830;SDS011;397;50.564;7.272;2022-11-20T12:02:25;19.40;;;15.80;;
830;SDS011;397;50.564;7.272;2022-11-20T12:05:13;16.43;;;14.43;;
830;SDS011;397;50.564;7.272;2022-11-20T12:07:51;19.27;;;16.27;;
830;SDS011;397;50.564;7.272;2022-11-20T12:12:58;21.03;;;16.00;;
830;SDS011;397;50.564;7.272;2022-11-20T12:15:44;22.10;;;16.80;;
830;SDS011;397;50.564;7.272;2022-11-20T12:18:17;21.47;;;15.93;;
830;SDS011;397;50.564;7.272;2022-11-20T12:20:45;22.40;;;16.40;;
830;SDS011;397;50.564;7.272;2022-11-20T12:23:40;23.40;;;17.57;;
830;SDS011;397;50.564;7.272;2022-11-20T12:26:10;24.30;;;17.30;;
830;SDS011;397;50.564;7.272;2022-11-20T12:28:42;21.07;;;17.03;;
830;SDS011;397;50.564;7.272;2022-11-20T12:36:27;19.10;;;15.43;;
830;SDS011;397;50.564;7.272;2022-11-20T12:44:31;21.53;;;16.20;;
830;SDS011;397;50.564;7.272;2022-11-20T12:47:16;23.80;;;17.30;;
830;SDS011;397;50.564;7.272;2022-11-20T12:52:32;23.77;;;18.50;;
830;SDS011;397;50.564;7.272;2022-11-20T12:58:10;21.30;;;16.07;;
830;SDS011;397;50.564;7.272;2022-11-20T13:00:19;24.27;;;18.20;;
830;SDS011;397;50.564;7.272;2022-11-20T13:02:57;21.57;;;17.03;;
830;SDS011;397;50.564;7.272;2022-11-20T13:05:46;24.00;;;17.43;;
830;SDS011;397;50.564;7.272;2022-11-20T13:08:33;21.10;;;16.40;;
830;SDS011;397;50.564;7.272;2022-11-20T13:11:10;23.03;;;17.90;;
830;SDS011;397;50.564;7.272;2022-11-20T13:19:01;20.90;;;16.53;;
830;SDS011;397;50.564;7.272;2022-11-20T13:21:37;19.20;;;15.33;;
830;SDS011;397;50.564;7.272;2022-11-20T13:24:07;19.07;;;15.90;;
830;SDS011;397;50.564;7.272;2022-11-20T13:26:59;18.40;;;15.70;;
830;SDS011;397;50.564;7.272;2022-11-20T13:29:33;18.17;;;15.00;;
830;SDS011;397;50.564;7.272;2022-11-20T13:32:04;18.57;;;15.77;;
830;SDS011;397;50.564;7.272;2022-11-20T13:34:33;17.77;;;14.80;;
830;SDS011;397;50.564;7.272;2022-11-20T13:37:02;20.03;;;14.60;;
830;SDS011;397;50.564;7.272;2022-11-20T13:39:33;21.67;;;16.67;;
830;SDS011;397;50.564;7.272;2022-11-20T13:44:53;20.27;;;15.67;;
830;SDS011;397;50.564;7.272;2022-11-20T13:47:20;17.80;;;15.43;;
830;SDS011;397;50.564;7.272;2022-11-20T13:49:53;22.13;;;16.03;;
830;SDS011;397;50.564;7.272;2022-11-20T14:01:23;20.33;;;15.53;;
830;SDS011;397;50.564;7.272;2022-11-20T14:03:48;22.07;;;16.33;;
830;SDS011;397;50.564;7.272;2022-11-20T14:06:22;21.90;;;16.70;;
830;SDS011;397;50.564;7.272;2022-11-20T14:08:53;21.47;;;14.60;;
830;SDS011;397;50.564;7.272;2022-11-20T14:11:22;21.07;;;15.73;;
830;SDS011;397;50.564;7.272;2022-11-20T14:13:52;15.97;;;12.47;;
830;SDS011;397;50.564;7.272;2022-11-20T14:16:26;20.07;;;14.93;;
830;SDS011;397;50.564;7.272;2022-11-20T14:18:55;19.60;;;15.37;;
830;SDS011;397;50.564;7.272;2022-11-20T14:21:25;21.03;;;16.00;;
830;SDS011;397;50.564;7.272;2022-11-20T14:24:05;16.90;;;15.10;;
830;SDS011;397;50.564;7.272;2022-11-20T14:26:33;19.10;;;14.80;;
830;SDS011;397;50.564;7.272;2022-11-20T14:29:02;17.17;;;12.63;;
830;SDS011;397;50.564;7.272;2022-11-20T14:31:29;15.60;;;12.73;;
830;SDS011;397;50.564;7.272;2022-11-20T14:33:57;18.00;;;13.60;;
830;SDS011;397;50.564;7.272;2022-11-20T14:36:25;15.20;;;11.50;;
830;SDS011;397;50.564;7.272;2022-11-20T14:38:53;19.47;;;14.00;;
830;SDS011;397;50.564;7.272;2022-11-20T14:41:22;20.03;;;14.10;;
830;SDS011;397;50.564;7.272;2022-11-20T14:43:55;16.07;;;12.13;;
830;SDS011;397;50.564;7.272;2022-11-20T14:46:23;17.73;;;14.07;;
830;SDS011;397;50.564;7.272;2022-11-20T14:48:55;16.73;;;13.37;;
830;SDS011;397;50.564;7.272;2022-11-20T14:51:25;14.30;;;12.23;;
830;SDS011;397;50.564;7.272;2022-11-20T14:54:15;22.03;;;14.97;;
830;SDS011;397;50.564;7.272;2022-11-20T14:56:54;19.90;;;16.33;;
830;SDS011;397;50.564;7.272;2022-11-20T14:59:35;17.57;;;14.67;;
830;SDS011;397;50.564;7.272;2022-11-20T15:02:01;18.20;;;14.50;;
830;SDS011;397;50.564;7.272;2022-11-20T15:04:48;17.40;;;13.70;;
830;SDS011;397;50.564;7.272;2022-11-20T15:07:24;16.53;;;13.87;;
830;SDS011;397;50.564;7.272;2022-11-20T15:10:08;21.00;;;15.33;;
830;SDS011;397;50.564;7.272;2022-11-20T15:12:38;18.90;;;13.57;;
830;SDS011;397;50.564;7.272;2022-11-20T15:15:08;15.50;;;12.60;;
830;SDS011;397;50.564;7.272;2022-11-20T15:17:37;16.80;;;13.50;;
830;SDS011;397;50.564;7.272;2022-11-20T15:20:15;18.50;;;14.53;;
830;SDS011;397;50.564;7.272;2022-11-20T15:22:41;20.87;;;15.77;;
830;SDS011;397;50.564;7.272;2022-11-20T15:25:15;23.03;;;17.80;;
830;SDS011;397;50.564;7.272;2022-11-20T15:27:44;23.33;;;17.30;;
830;SDS011;397;50.564;7.272;2022-11-20T15:30:15;21.47;;;17.53;;
830;SDS011;397;50.564;7.272;2022-11-20T15:32:44;21.53;;;16.20;;
830;SDS011;397;50.564;7.272;2022-11-20T15:35:13;20.77;;;15.37;;
830;SDS011;397;50.564;7.272;2022-11-20T15:37:41;19.17;;;15.07;;
830;SDS011;397;50.564;7.272;2022-11-20T15:40:09;19.63;;;15.40;;
830;SDS011;397;50.564;7.272;2022-11-20T15:42:37;18.47;;;13.97;;
830;SDS011;397;50.564;7.272;2022-11-20T15:45:07;14.43;;;11.17;;
830;SDS011;397;50.564;7.272;2022-11-20T15:47:35;14.53;;;11.03;;
830;SDS011;397;50.564;7.272;2022-11-20T15:50:02;15.23;;;10.60;;
830;SDS011;397;50.564;7.272;2022-11-20T15:52:32;12.70;;;10.07;;
830;SDS011;397;50.564;7.272;2022-11-20T15:54:59;11.30;;;9.47;;
830;SDS011;397;50.564;7.272;2022-11-20T15:57:27;12.20;;;9.20;;
830;SDS011;397;50.564;7.272;2022-11-20T15:59:54;9.83;;;7.70;;
830;SDS011;397;50.564;7.272;2022-11-20T16:02:22;12.30;;;7.60;;
830;SDS011;397;50.564;7.272;2022-11-20T16:04:50;10.90;;;8.23;;
830;SDS011;397;50.564;7.272;2022-11-20T16:07:17;9.20;;;7.33;;
830;SDS011;397;50.564;7.272;2022-11-20T16:09:45;8.57;;;5.57;;
830;SDS011;397;50.564;7.272;2022-11-20T16:12:12;8.53;;;7.43;;
830;SDS011;397;50.564;7.272;2022-11-20T16:14:42;9.20;;;7.33;;
830;SDS011;397;50.564;7.272;2022-11-20T16:17:27;10.90;;;6.70;;
830;SDS011;397;50.564;7.272;2022-11-20T16:19:56;7.90;;;5.23;;
830;SDS011;397;50.564;7.272;2022-11-20T16:22:24;6.87;;;5.10;;
830;SDS011;397;50.564;7.272;2022-11-20T16:24:51;9.77;;;5.17;;
830;SDS011;397;50.564;7.272;2022-11-20T16:27:19;6.40;;;4.40;;
830;SDS011;397;50.564;7.272;2022-11-20T16:29:46;7.13;;;5.63;;
830;SDS011;397;50.564;7.272;2022-11-20T16:32:14;9.67;;;4.87;;
830;SDS011;397;50.564;7.272;2022-11-20T16:34:41;7.10;;;5.00;;
830;SDS011;397;50.564;7.272;2022-11-20T16:37:09;11.90;;;7.27;;
830;SDS011;397;50.564;7.272;2022-11-20T16:39:36;11.17;;;7.47;;
830;SDS011;397;50.564;7.272;2022-11-20T16:42:04;9.20;;;7.00;;
830;SDS011;397;50.564;7.272;2022-11-20T16:44:31;13.27;;;7.30;;
830;SDS011;397;50.564;7.272;2022-11-20T16:46:59;10.67;;;6.77;;
830;SDS011;397;50.564;7.272;2022-11-20T16:49:27;6.33;;;4.40;;
830;SDS011;397;50.564;7.272;2022-11-20T16:51:54;6.20;;;3.67;;